createdAt,value
2018-05-14T00:02:04.353Z,8.83
2018-05-14T00:04:32.732Z,8.97
2018-05-14T00:07:01.466Z,8.70
2018-05-14T00:09:29.092Z,8.67
2018-05-14T00:11:56.689Z,8.20
2018-05-14T00:14:24.399Z,8.40
2018-05-14T00:16:51.951Z,9.70
2018-05-14T00:19:20.291Z,8.43
2018-05-14T00:21:47.857Z,8.83
2018-05-14T00:24:15.449Z,8.70
2018-05-14T00:26:43.812Z,9.17
2018-05-14T00:29:12.173Z,9.50
2018-05-14T00:31:39.799Z,9.60
2018-05-14T00:34:07.434Z,8.37
2018-05-14T00:36:35.822Z,10.17
2018-05-14T00:39:03.474Z,9.23
2018-05-14T00:41:31.913Z,9.50
2018-05-14T00:43:59.499Z,8.83
2018-05-14T00:46:27.078Z,8.70
2018-05-14T00:48:54.689Z,9.13
2018-05-14T00:51:22.277Z,8.57
2018-05-14T00:53:50.677Z,8.30
2018-05-14T00:56:19.028Z,7.83
2018-05-14T00:58:46.613Z,8.43
2018-05-14T01:01:14.959Z,7.93
2018-05-14T01:03:42.607Z,8.87
2018-05-14T01:06:10.173Z,8.40
2018-05-14T01:08:37.727Z,7.97
2018-05-14T01:11:05.368Z,9.37
2018-05-14T01:13:33.699Z,9.10
2018-05-14T01:16:02.087Z,9.40
2018-05-14T01:18:30.487Z,9.80
2018-05-14T01:20:58.125Z,8.20
2018-05-14T01:23:25.723Z,8.73
2018-05-14T01:25:53.328Z,8.27
2018-05-14T01:28:20.966Z,9.40
2018-05-14T01:30:48.559Z,8.13
2018-05-14T01:33:16.159Z,7.57
2018-05-14T01:35:43.779Z,5.97
2018-05-14T01:38:11.401Z,6.60
2018-05-14T01:40:39.099Z,7.40
2018-05-14T01:43:06.693Z,7.20
2018-05-14T01:45:34.307Z,7.07
2018-05-14T01:48:01.931Z,7.27
2018-05-14T01:50:29.517Z,6.70
2018-05-14T01:52:57.113Z,7.40
2018-05-14T01:55:24.729Z,8.03
2018-05-14T01:57:52.329Z,8.10
2018-05-14T02:00:20.711Z,10.83
2018-05-14T02:02:48.352Z,8.70
2018-05-14T02:05:15.906Z,8.73
2018-05-14T02:07:43.551Z,8.98
2018-05-14T02:10:11.151Z,9.93
2018-05-14T02:12:38.815Z,11.13
2018-05-14T02:15:06.440Z,11.37
2018-05-14T02:17:34.061Z,10.77
2018-05-14T02:20:01.659Z,10.93
2018-05-14T02:22:29.451Z,10.53
2018-05-14T02:24:57.064Z,10.47
2018-05-14T02:27:25.777Z,10.88
2018-05-14T02:29:53.403Z,12.30
2018-05-14T02:32:21.027Z,10.93
2018-05-14T02:34:48.614Z,11.23
2018-05-14T02:37:16.985Z,10.13
2018-05-14T02:39:45.346Z,11.53
2018-05-14T02:42:13.669Z,11.23
2018-05-14T02:44:41.301Z,11.13
2018-05-14T02:47:09.699Z,12.43
2018-05-14T02:49:37.279Z,12.27
2018-05-14T02:52:04.900Z,12.93
2018-05-14T02:54:33.285Z,14.13
2018-05-14T02:57:01.730Z,12.53
2018-05-14T02:59:29.290Z,12.87
2018-05-14T03:01:56.847Z,13.10
2018-05-14T03:04:24.678Z,13.23
2018-05-14T03:06:52.299Z,12.87
2018-05-14T03:09:19.913Z,13.00
2018-05-14T03:11:47.570Z,12.63
2018-05-14T03:14:15.194Z,13.57
2018-05-14T03:16:42.839Z,14.30
2018-05-14T03:19:10.479Z,14.73
2018-05-14T03:21:38.086Z,13.93
2018-05-14T03:24:05.691Z,13.70
2018-05-14T03:26:33.297Z,14.30
2018-05-14T03:29:01.706Z,15.18
2018-05-14T03:31:29.300Z,14.87
2018-05-14T03:33:56.925Z,15.50
2018-05-14T03:36:24.511Z,14.53
2018-05-14T03:38:52.143Z,15.23
2018-05-14T03:41:19.716Z,16.37
2018-05-14T03:43:47.338Z,15.30
2018-05-14T03:46:15.682Z,15.27
2018-05-14T03:48:43.312Z,16.03
2018-05-14T03:51:10.956Z,17.33
2018-05-14T03:53:38.572Z,16.90
2018-05-14T03:56:06.203Z,35.17
2018-05-14T03:58:45.886Z,40.37
2018-05-14T04:01:16.356Z,46.53
2018-05-14T04:03:55.928Z,39.17
2018-05-14T04:06:37.608Z,34.80
2018-05-14T04:09:06.157Z,37.20
2018-05-14T04:11:34.565Z,27.57
2018-05-14T04:14:02.128Z,24.30
2018-05-14T04:16:29.797Z,23.47
2018-05-14T04:18:58.164Z,22.00
2018-05-14T04:21:25.769Z,21.03
2018-05-14T04:23:53.420Z,17.50
2018-05-14T04:26:21.444Z,20.43
2018-05-14T04:28:49.060Z,19.10
2018-05-14T04:31:16.668Z,19.13
2018-05-14T04:33:44.319Z,19.03
2018-05-14T04:36:11.963Z,17.47
2018-05-14T04:38:40.338Z,17.47
2018-05-14T04:41:08.738Z,17.27
2018-05-14T04:43:36.367Z,16.90
2018-05-14T04:46:03.978Z,17.60
2018-05-14T04:48:31.603Z,17.00
2018-05-14T04:50:59.958Z,15.00
2018-05-14T04:53:27.599Z,13.23
2018-05-14T04:55:55.218Z,14.17
2018-05-14T04:58:23.577Z,14.37
2018-05-14T05:00:51.171Z,13.27
2018-05-14T05:03:18.816Z,13.17
2018-05-14T05:05:47.183Z,13.80
2018-05-14T05:08:15.559Z,14.40
2018-05-14T05:10:43.929Z,14.93
2018-05-14T05:13:11.528Z,14.47
2018-05-14T05:15:39.149Z,16.00
2018-05-14T05:18:06.776Z,16.03
2018-05-14T05:20:34.430Z,16.97
2018-05-14T05:23:02.099Z,16.93
2018-05-14T05:25:29.737Z,16.27
2018-05-14T05:27:57.322Z,16.40
2018-05-14T05:30:24.918Z,15.40
2018-05-14T05:32:52.531Z,15.37
2018-05-14T05:35:20.140Z,15.43
2018-05-14T05:37:47.761Z,16.93
2018-05-14T05:40:15.544Z,15.13
2018-05-14T05:42:43.154Z,15.17
2018-05-14T05:45:11.607Z,14.00
2018-05-14T05:47:39.172Z,13.50
2018-05-14T05:50:06.853Z,15.13
2018-05-14T05:52:34.502Z,14.57
2018-05-14T05:55:02.903Z,14.53
2018-05-14T05:57:30.515Z,13.30
2018-05-14T05:59:58.125Z,12.50
2018-05-14T06:02:25.735Z,12.73
2018-05-14T06:04:53.361Z,11.90
2018-05-14T06:07:20.984Z,12.87
2018-05-14T06:09:48.604Z,11.40
2018-05-14T06:12:16.221Z,10.77
2018-05-14T06:14:43.835Z,9.30
2018-05-14T06:17:11.469Z,10.13
2018-05-14T06:19:39.134Z,8.70
2018-05-14T06:22:06.695Z,8.07
2018-05-14T06:24:34.261Z,7.97
2018-05-14T06:27:01.858Z,7.87
2018-05-14T06:29:29.479Z,6.80
2018-05-14T06:31:57.254Z,6.77
2018-05-14T06:34:24.879Z,6.80
2018-05-14T06:36:52.485Z,7.13
2018-05-14T06:39:20.433Z,7.10
2018-05-14T06:41:49.063Z,7.07
2018-05-14T06:44:17.432Z,7.10
2018-05-14T06:46:45.064Z,6.13
2018-05-14T06:49:12.680Z,7.40
2018-05-14T06:51:41.060Z,6.67
2018-05-14T06:54:09.444Z,7.00
2018-05-14T06:56:37.018Z,6.67
2018-05-14T06:59:04.656Z,6.67
2018-05-14T07:01:33.060Z,6.17
2018-05-14T07:04:00.676Z,6.20
2018-05-14T07:06:28.292Z,6.20
2018-05-14T07:08:55.939Z,5.77
2018-05-14T07:11:24.161Z,6.00
2018-05-14T07:13:51.894Z,6.17
2018-05-14T07:16:19.596Z,6.03
2018-05-14T07:18:47.251Z,5.93
2018-05-14T07:21:14.882Z,6.30
2018-05-14T07:23:42.467Z,6.03
2018-05-14T07:26:10.068Z,5.70
2018-05-14T07:28:38.456Z,5.40
2018-05-14T07:31:06.150Z,5.27
2018-05-14T07:33:33.768Z,5.50
2018-05-14T07:36:02.126Z,5.87
2018-05-14T07:38:29.717Z,5.40
2018-05-14T07:40:57.345Z,5.50
2018-05-14T07:43:24.976Z,5.50
2018-05-14T07:45:52.578Z,5.77
2018-05-14T07:48:20.194Z,5.53
2018-05-14T07:50:47.818Z,5.30
2018-05-14T07:53:16.206Z,5.20
2018-05-14T07:55:43.858Z,5.17
2018-05-14T07:58:11.646Z,5.05
2018-05-14T08:00:39.239Z,5.30
2018-05-14T08:03:06.881Z,5.13
2018-05-14T08:05:34.575Z,5.47
2018-05-14T08:08:02.120Z,5.00
2018-05-14T08:10:29.732Z,4.93
2018-05-14T08:12:57.355Z,5.80
2018-05-14T08:15:24.988Z,5.00
2018-05-14T08:17:52.652Z,5.13
2018-05-14T08:20:20.281Z,5.07
2018-05-14T08:22:48.633Z,5.03
2018-05-14T08:25:16.191Z,5.10
2018-05-14T08:27:43.815Z,5.40
2018-05-14T08:30:11.388Z,4.27
2018-05-14T08:32:39.021Z,5.70
2018-05-14T08:35:06.629Z,5.60
2018-05-14T08:37:34.214Z,4.83
2018-05-14T08:40:02.589Z,5.57
2018-05-14T08:42:31.084Z,5.43
2018-05-14T08:44:58.641Z,5.53
2018-05-14T08:47:26.211Z,5.57
2018-05-14T08:49:53.848Z,5.53
2018-05-14T08:52:22.241Z,5.50
2018-05-14T08:54:49.851Z,5.87
2018-05-14T08:57:17.427Z,5.53
2018-05-14T08:59:45.059Z,5.33
2018-05-14T09:02:12.665Z,5.20
2018-05-14T09:04:41.002Z,5.13
2018-05-14T09:07:08.612Z,5.00
2018-05-14T09:09:36.956Z,4.90
2018-05-14T09:12:06.029Z,5.37
2018-05-14T09:14:33.819Z,5.10
2018-05-14T09:17:01.437Z,4.93
2018-05-14T09:19:29.046Z,4.23
2018-05-14T09:21:56.661Z,4.30
2018-05-14T09:24:24.233Z,4.33
2018-05-14T09:26:51.822Z,4.40
2018-05-14T09:29:19.435Z,3.80
2018-05-14T09:31:47.021Z,4.10
2018-05-14T09:34:14.630Z,3.87
2018-05-14T09:36:43.000Z,4.17
2018-05-14T09:39:11.387Z,4.20
2018-05-14T09:41:39.763Z,3.90
2018-05-14T09:44:08.145Z,4.23
2018-05-14T09:46:36.496Z,3.93
2018-05-14T09:49:04.109Z,3.70
2018-05-14T09:51:31.721Z,4.27
2018-05-14T09:53:59.347Z,3.70
2018-05-14T09:56:26.970Z,3.90
2018-05-14T09:58:55.394Z,3.73
2018-05-14T10:01:23.001Z,3.83
2018-05-14T10:03:50.597Z,4.10
2018-05-14T10:06:18.206Z,3.70
2018-05-14T10:08:45.855Z,3.30
2018-05-14T10:11:13.453Z,3.07
2018-05-14T10:13:41.845Z,3.60
2018-05-14T10:16:09.425Z,3.10
2018-05-14T10:18:37.064Z,3.23
2018-05-14T10:21:04.637Z,3.40
2018-05-14T10:23:32.198Z,3.40
2018-05-14T10:25:59.805Z,3.43
2018-05-14T10:28:29.129Z,3.30
2018-05-14T10:30:57.491Z,3.27
2018-05-14T10:33:25.090Z,3.30
2018-05-14T10:35:52.725Z,3.40
2018-05-14T10:38:21.089Z,3.60
2018-05-14T10:40:48.743Z,3.23
2018-05-14T10:43:16.388Z,3.23
2018-05-14T10:45:44.007Z,3.80
2018-05-14T10:48:12.381Z,3.73
2018-05-14T10:50:39.977Z,3.43
2018-05-14T10:53:07.593Z,3.27
2018-05-14T10:55:35.955Z,3.90
2018-05-14T10:58:03.566Z,3.50
2018-05-14T11:00:31.177Z,3.77
2018-05-14T11:02:58.787Z,3.60
2018-05-14T11:05:26.417Z,3.27
2018-05-14T11:07:54.734Z,3.20
2018-05-14T11:10:23.123Z,3.27
2018-05-14T11:12:50.733Z,3.00
2018-05-14T11:15:18.363Z,3.10
2018-05-14T11:17:45.958Z,3.07
2018-05-14T11:20:14.342Z,3.70
2018-05-14T11:22:41.949Z,3.40
2018-05-14T11:25:09.537Z,3.00
2018-05-14T11:27:37.193Z,3.33
2018-05-14T11:30:04.747Z,3.87
2018-05-14T11:32:32.371Z,3.53
2018-05-14T11:34:59.931Z,3.47
2018-05-14T11:37:27.521Z,3.00
2018-05-14T11:39:55.115Z,3.40
2018-05-14T11:42:23.517Z,3.37
2018-05-14T11:44:51.139Z,3.60
2018-05-14T11:47:25.891Z,3.53
2018-05-14T11:49:54.277Z,3.17
2018-05-14T11:52:21.873Z,3.33
2018-05-14T11:54:49.465Z,3.55
2018-05-14T11:57:17.119Z,3.50
2018-05-14T11:59:44.727Z,3.87
2018-05-14T12:02:12.313Z,3.85
2018-05-14T12:04:48.445Z,3.78
2018-05-14T12:07:16.067Z,4.17
2018-05-14T12:09:43.676Z,4.17
2018-05-14T12:12:11.361Z,4.17
2018-05-14T12:14:39.621Z,3.80
2018-05-14T12:17:07.225Z,4.10
2018-05-14T12:19:34.819Z,3.70
2018-05-14T12:22:03.203Z,4.17
2018-05-14T12:24:30.844Z,3.83
2018-05-14T12:26:59.196Z,3.97
2018-05-14T12:29:26.752Z,4.13
2018-05-14T12:31:54.357Z,3.70
2018-05-14T12:34:21.936Z,4.00
2018-05-14T12:36:49.555Z,4.03
2018-05-14T12:39:17.181Z,4.60
2018-05-14T12:41:44.787Z,4.90
2018-05-14T12:44:13.133Z,4.30
2018-05-14T12:46:40.763Z,4.00
2018-05-14T12:49:08.377Z,4.10
2018-05-14T12:51:35.991Z,4.00
2018-05-14T12:54:03.595Z,3.90
2018-05-14T12:56:31.245Z,3.67
2018-05-14T12:58:58.846Z,3.47
2018-05-14T13:01:26.447Z,3.50
2018-05-14T13:03:54.054Z,3.43
2018-05-14T13:06:22.457Z,3.30
2018-05-14T13:08:51.136Z,3.10
2018-05-14T13:11:19.489Z,3.33
2018-05-14T13:13:47.891Z,3.77
2018-05-14T13:16:15.501Z,3.00
2018-05-14T13:18:43.127Z,3.07
2018-05-14T13:21:10.727Z,2.80
2018-05-14T13:23:38.319Z,2.40
2018-05-14T13:26:06.693Z,2.30
2018-05-14T13:28:34.300Z,2.50
2018-05-14T13:31:01.920Z,2.43
2018-05-14T13:33:29.486Z,2.37
2018-05-14T13:35:57.897Z,2.80
2018-05-14T13:38:25.536Z,2.55
2018-05-14T13:40:53.136Z,2.55
2018-05-14T13:43:20.767Z,2.78
2018-05-14T13:45:48.420Z,2.22
2018-05-14T13:48:15.964Z,2.50
2018-05-14T13:50:44.358Z,2.83
2018-05-14T13:53:11.986Z,2.50
2018-05-14T13:55:39.614Z,2.92
2018-05-14T13:58:07.237Z,3.07
2018-05-14T14:00:35.632Z,2.65
2018-05-14T14:03:03.319Z,2.60
2018-05-14T14:05:30.870Z,2.50
2018-05-14T14:07:58.505Z,2.70
2018-05-14T14:10:26.132Z,2.35
2018-05-14T14:12:53.754Z,2.15
2018-05-14T14:15:21.349Z,2.25
2018-05-14T14:17:48.949Z,2.35
2018-05-14T14:20:16.562Z,2.33
2018-05-14T14:22:44.150Z,2.20
2018-05-14T14:25:12.568Z,2.10
2018-05-14T14:27:40.201Z,2.42
2018-05-14T14:30:08.558Z,2.30
2018-05-14T14:32:36.170Z,2.03
2018-05-14T14:35:04.053Z,2.45
2018-05-14T14:37:31.634Z,2.95
2018-05-14T14:39:59.242Z,2.75
2018-05-14T14:42:26.841Z,3.35
2018-05-14T14:44:54.424Z,2.95
2018-05-14T14:47:22.049Z,3.22
2018-05-14T14:49:49.672Z,3.37
2018-05-14T14:52:18.039Z,3.58
2018-05-14T14:54:46.392Z,3.80
2018-05-14T14:57:13.966Z,3.70
2018-05-14T14:59:41.568Z,3.65
2018-05-14T15:02:09.941Z,3.97
2018-05-14T15:04:37.512Z,3.80
2018-05-14T15:07:05.137Z,4.22
2018-05-14T15:09:32.690Z,3.60
2018-05-14T15:12:00.276Z,3.92
2018-05-14T15:14:27.878Z,4.20
2018-05-14T15:16:55.496Z,4.78
2018-05-14T15:19:23.076Z,4.30
2018-05-14T15:21:50.732Z,4.57
2018-05-14T15:24:18.414Z,4.37
2018-05-14T15:26:46.039Z,4.30
2018-05-14T15:29:13.654Z,4.33
2018-05-14T15:31:41.284Z,3.73
2018-05-14T15:34:08.877Z,3.87
2018-05-14T15:36:36.483Z,3.30
2018-05-14T15:39:04.826Z,2.87
2018-05-14T15:41:32.421Z,3.87
2018-05-14T15:44:00.046Z,4.40
2018-05-14T15:46:28.425Z,4.07
2018-05-14T15:48:56.809Z,3.93
2018-05-14T15:51:24.388Z,3.70
2018-05-14T15:53:52.784Z,3.70
2018-05-14T15:56:20.455Z,4.03
2018-05-14T15:58:47.981Z,4.37
2018-05-14T16:01:15.549Z,4.17
2018-05-14T16:03:43.924Z,4.23
2018-05-14T16:06:11.506Z,4.50
2018-05-14T16:08:39.123Z,4.20
2018-05-14T16:11:06.722Z,4.40
2018-05-14T16:13:34.418Z,4.17
2018-05-14T16:16:02.049Z,4.30
2018-05-14T16:18:29.664Z,3.90
2018-05-14T16:20:57.286Z,4.30
2018-05-14T16:23:24.859Z,4.37
2018-05-14T16:25:52.493Z,4.23
2018-05-14T16:28:20.137Z,4.03
2018-05-14T16:30:49.054Z,3.97
2018-05-14T16:33:16.678Z,4.43
2018-05-14T16:35:44.225Z,4.33
2018-05-14T16:38:11.866Z,4.13
2018-05-14T16:40:39.457Z,3.73
2018-05-14T16:43:07.134Z,4.70
2018-05-14T16:45:35.569Z,4.60
2018-05-14T16:48:03.176Z,5.00
2018-05-14T16:50:31.577Z,4.30
2018-05-14T16:52:59.200Z,4.40
2018-05-14T16:55:26.815Z,3.80
2018-05-14T16:57:54.470Z,4.00
2018-05-14T17:00:22.266Z,4.50
2018-05-14T17:02:50.046Z,4.27
2018-05-14T17:05:17.695Z,4.23
2018-05-14T17:07:45.327Z,4.00
2018-05-14T17:10:13.394Z,4.30
2018-05-14T17:12:41.502Z,3.63
2018-05-14T17:15:09.863Z,4.00
2018-05-14T17:17:37.438Z,4.70
2018-05-14T17:20:08.764Z,4.27
2018-05-14T17:22:36.417Z,4.30
2018-05-14T17:25:04.027Z,4.80
2018-05-14T17:27:31.632Z,4.23
2018-05-14T17:29:59.230Z,4.30
2018-05-14T17:32:27.075Z,4.60
2018-05-14T17:34:54.720Z,5.30
2018-05-14T17:37:22.312Z,4.87
2018-05-14T17:39:49.970Z,4.97
2018-05-14T17:42:17.589Z,4.17
2018-05-14T17:44:45.362Z,3.87
2018-05-14T17:47:12.964Z,4.60
2018-05-14T17:49:40.582Z,4.57
2018-05-14T17:52:08.162Z,5.47
2018-05-14T17:54:35.936Z,4.73
2018-05-14T17:57:03.558Z,5.10
2018-05-14T17:59:31.963Z,4.93
2018-05-14T18:01:59.554Z,4.77
2018-05-14T18:04:27.178Z,5.53
2018-05-14T18:06:54.828Z,5.60
2018-05-14T18:09:30.495Z,5.07
2018-05-14T18:12:00.053Z,4.47
2018-05-14T18:14:27.688Z,5.70
2018-05-14T18:16:55.283Z,5.70
2018-05-14T18:19:23.640Z,3.73
2018-05-14T18:21:51.233Z,3.80
2018-05-14T18:24:19.606Z,4.27
2018-05-14T18:26:48.661Z,3.43
2018-05-14T18:29:22.028Z,3.60
2018-05-14T18:31:55.427Z,3.50
2018-05-14T18:34:28.598Z,4.37
2018-05-14T18:36:56.198Z,4.13
2018-05-14T18:39:29.492Z,4.20
2018-05-14T18:41:57.159Z,4.73
2018-05-14T18:44:30.364Z,4.67
2018-05-14T18:46:57.950Z,4.53
2018-05-14T18:49:26.395Z,4.30
2018-05-14T18:51:55.437Z,4.20
2018-05-14T18:54:27.923Z,4.67
2018-05-14T18:56:55.521Z,4.70
2018-05-14T18:59:23.101Z,4.00
2018-05-14T19:01:50.714Z,4.63
2018-05-14T19:04:18.320Z,4.20
2018-05-14T19:06:47.437Z,4.57
2018-05-14T19:09:15.819Z,4.77
2018-05-14T19:11:49.910Z,4.17
2018-05-14T19:14:17.564Z,4.13
2018-05-14T19:16:50.870Z,3.90
2018-05-14T19:19:18.461Z,3.90
2018-05-14T19:21:46.851Z,3.63
2018-05-14T19:24:16.465Z,3.67
2018-05-14T19:26:44.091Z,3.80
2018-05-14T19:29:18.141Z,3.40
2018-05-14T19:31:46.498Z,3.43
2018-05-14T19:34:19.775Z,3.60
2018-05-14T19:36:47.421Z,3.57
2018-05-14T19:39:22.689Z,3.63
2018-05-14T19:41:51.051Z,3.80
2018-05-14T19:44:18.652Z,3.73
2018-05-14T19:46:46.215Z,3.60
2018-05-14T19:49:13.893Z,3.87
2018-05-14T19:51:41.491Z,4.23
2018-05-14T19:54:09.108Z,3.60
2018-05-14T19:56:36.742Z,3.43
2018-05-14T19:59:04.337Z,3.70
2018-05-14T20:01:32.008Z,3.80
2018-05-14T20:03:59.607Z,3.40
2018-05-14T20:06:27.998Z,3.93
2018-05-14T20:08:55.577Z,4.17
2018-05-14T20:11:23.215Z,3.77
2018-05-14T20:13:50.834Z,4.07
2018-05-14T20:16:18.453Z,3.80
2018-05-14T20:22:05.064Z,4.00
2018-05-14T20:24:33.425Z,4.20
2018-05-14T20:27:13.640Z,4.30
2018-05-14T20:29:45.980Z,4.20
2018-05-14T20:32:13.598Z,4.10
2018-05-14T20:37:41.305Z,4.37
2018-05-14T20:40:09.656Z,3.70
2018-05-14T20:42:37.264Z,4.07
2018-05-14T20:45:04.884Z,4.43
2018-05-14T20:56:33.327Z,3.20
2018-05-14T20:59:00.860Z,3.27
2018-05-14T21:01:29.425Z,3.00
2018-05-14T21:03:56.977Z,3.40
2018-05-14T21:06:25.435Z,3.40
2018-05-14T21:09:05.920Z,3.00
2018-05-14T21:11:33.437Z,3.47
2018-05-14T21:14:00.986Z,3.30
2018-05-14T21:16:28.521Z,3.30
2018-05-14T21:18:56.144Z,2.83
2018-05-14T21:21:24.438Z,2.90
2018-05-14T21:23:51.995Z,2.73
2018-05-14T21:26:19.636Z,3.10
2018-05-14T21:28:47.259Z,3.03
2018-05-14T21:31:14.909Z,2.40
2018-05-14T21:33:42.519Z,2.97
2018-05-14T21:36:10.122Z,2.63
2018-05-14T21:38:37.710Z,2.70
2018-05-14T21:41:05.353Z,2.50
2018-05-14T21:43:32.974Z,3.00
2018-05-14T21:46:00.635Z,2.80
2018-05-14T21:48:28.246Z,2.70
2018-05-14T21:50:55.880Z,2.63
2018-05-14T21:53:23.492Z,3.80
2018-05-14T21:55:51.113Z,4.00
2018-05-14T21:58:18.746Z,4.03
2018-05-14T22:00:46.363Z,3.90
2018-05-14T22:03:13.958Z,3.80
2018-05-14T22:05:50.536Z,3.60
2018-05-14T22:08:18.227Z,3.33
2018-05-14T22:10:45.843Z,3.30
2018-05-14T22:13:14.250Z,3.10
2018-05-14T22:15:41.847Z,3.10
2018-05-14T22:18:09.476Z,2.60
2018-05-14T22:20:37.838Z,3.03
2018-05-14T22:23:05.528Z,2.83
2018-05-14T22:25:33.188Z,3.07
2018-05-14T22:28:00.816Z,3.10
2018-05-14T22:30:28.424Z,2.83
2018-05-14T22:32:56.052Z,3.20
2018-05-14T22:35:23.716Z,2.90
2018-05-14T22:37:51.267Z,3.00
2018-05-14T22:40:18.878Z,2.90
2018-05-14T22:42:46.538Z,2.65
2018-05-14T22:45:14.147Z,3.10
2018-05-14T22:47:41.771Z,2.93
2018-05-14T22:50:09.365Z,2.93
2018-05-14T22:52:37.755Z,2.87
2018-05-14T22:55:05.314Z,3.30
2018-05-14T22:57:36.947Z,3.23
2018-05-14T23:00:05.353Z,2.80
2018-05-14T23:02:32.949Z,2.97
2018-05-14T23:05:00.518Z,2.83
2018-05-14T23:07:28.159Z,2.87
2018-05-14T23:09:55.785Z,2.97
2018-05-14T23:12:23.396Z,2.87
2018-05-14T23:14:51.021Z,3.23
2018-05-14T23:17:18.577Z,3.20
2018-05-14T23:19:46.181Z,2.93
2018-05-14T23:22:16.579Z,2.80
2018-05-14T23:24:44.192Z,3.10
2018-05-14T23:27:12.581Z,3.13
2018-05-14T23:29:40.991Z,3.20
2018-05-14T23:32:08.601Z,3.00
2018-05-14T23:34:37.705Z,2.90
2018-05-14T23:37:05.316Z,2.30
2018-05-14T23:39:32.930Z,2.60
2018-05-14T23:42:01.299Z,2.90
2018-05-14T23:44:28.906Z,2.60
2018-05-14T23:46:56.490Z,2.80
2018-05-14T23:49:24.096Z,2.70
